sensor_id;sensor_type;location;lat;lon;timestamp;temperature;humidity
7762;DHT22;3925;48.636;9.516;2023-03-31T00:00:58;11.70;99.90
7762;DHT22;3925;48.636;9.516;2023-03-31T00:03:25;11.60;99.90
7762;DHT22;3925;48.636;9.516;2023-03-31T00:05:56;11.50;99.90
7762;DHT22;3925;48.636;9.516;2023-03-31T00:08:23;11.60;99.90
7762;DHT22;3925;48.636;9.516;2023-03-31T00:10:57;11.50;99.90
7762;DHT22;3925;48.636;9.516;2023-03-31T00:13:25;11.50;99.90
7762;DHT22;3925;48.636;9.516;2023-03-31T00:15:57;11.40;99.90
7762;DHT22;3925;48.636;9.516;2023-03-31T00:18:24;11.30;99.90
7762;DHT22;3925;48.636;9.516;2023-03-31T00:20:51;11.20;99.90
7762;DHT22;3925;48.636;9.516;2023-03-31T00:23:19;11.20;99.90
7762;DHT22;3925;48.636;9.516;2023-03-31T00:25:53;11.20;99.90
7762;DHT22;3925;48.636;9.516;2023-03-31T00:28:20;11.20;99.90
7762;DHT22;3925;48.636;9.516;2023-03-31T00:30:47;11.20;99.90
7762;DHT22;3925;48.636;9.516;2023-03-31T00:33:15;11.00;99.90
7762;DHT22;3925;48.636;9.516;2023-03-31T00:35:42;11.00;99.90
7762;DHT22;3925;48.636;9.516;2023-03-31T00:38:10;11.00;99.90
7762;DHT22;3925;48.636;9.516;2023-03-31T00:40:44;11.10;99.90
7762;DHT22;3925;48.636;9.516;2023-03-31T00:43:23;11.00;99.90
7762;DHT22;3925;48.636;9.516;2023-03-31T00:45:54;11.00;99.90
7762;DHT22;3925;48.636;9.516;2023-03-31T00:48:22;10.90;99.90
7762;DHT22;3925;48.636;9.516;2023-03-31T00:50:52;11.00;99.90
7762;DHT22;3925;48.636;9.516;2023-03-31T00:53:22;11.00;99.90
7762;DHT22;3925;48.636;9.516;2023-03-31T00:55:52;10.90;99.90
7762;DHT22;3925;48.636;9.516;2023-03-31T00:58:20;11.00;99.90
7762;DHT22;3925;48.636;9.516;2023-03-31T01:00:53;11.10;99.90
7762;DHT22;3925;48.636;9.516;2023-03-31T01:03:22;11.10;99.90
7762;DHT22;3925;48.636;9.516;2023-03-31T01:05:52;11.10;99.90
7762;DHT22;3925;48.636;9.516;2023-03-31T01:08:23;11.20;99.90
7762;DHT22;3925;48.636;9.516;2023-03-31T01:10:54;11.20;99.90
7762;DHT22;3925;48.636;9.516;2023-03-31T01:13:21;11.30;99.90
7762;DHT22;3925;48.636;9.516;2023-03-31T01:15:49;11.30;99.90
7762;DHT22;3925;48.636;9.516;2023-03-31T01:18:16;11.40;99.90
7762;DHT22;3925;48.636;9.516;2023-03-31T01:21:17;11.40;99.90
7762;DHT22;3925;48.636;9.516;2023-03-31T01:27:04;11.50;99.90
7762;DHT22;3925;48.636;9.516;2023-03-31T01:29:59;11.70;99.90
7762;DHT22;3925;48.636;9.516;2023-03-31T01:32:47;11.70;99.90
7762;DHT22;3925;48.636;9.516;2023-03-31T01:35:36;11.80;99.90
7762;DHT22;3925;48.636;9.516;2023-03-31T01:38:41;11.90;99.90
7762;DHT22;3925;48.636;9.516;2023-03-31T01:41:29;12.10;99.90
7762;DHT22;3925;48.636;9.516;2023-03-31T01:44:07;12.10;99.90
7762;DHT22;3925;48.636;9.516;2023-03-31T01:46:42;12.20;99.90
7762;DHT22;3925;48.636;9.516;2023-03-31T01:49:18;12.20;99.90
7762;DHT22;3925;48.636;9.516;2023-03-31T01:51:50;12.20;99.90
7762;DHT22;3925;48.636;9.516;2023-03-31T01:54:21;12.30;99.90
7762;DHT22;3925;48.636;9.516;2023-03-31T01:56:55;12.30;99.90
7762;DHT22;3925;48.636;9.516;2023-03-31T01:59:26;12.30;99.90
7762;DHT22;3925;48.636;9.516;2023-03-31T02:01:57;12.40;99.90
7762;DHT22;3925;48.636;9.516;2023-03-31T02:04:28;12.50;99.90
7762;DHT22;3925;48.636;9.516;2023-03-31T02:07:00;12.50;99.90
7762;DHT22;3925;48.636;9.516;2023-03-31T02:09:31;12.60;99.90
7762;DHT22;3925;48.636;9.516;2023-03-31T02:12:04;12.60;99.90
7762;DHT22;3925;48.636;9.516;2023-03-31T02:14:33;12.60;99.90
7762;DHT22;3925;48.636;9.516;2023-03-31T02:17:02;12.50;99.90
7762;DHT22;3925;48.636;9.516;2023-03-31T02:19:32;12.40;99.90
7762;DHT22;3925;48.636;9.516;2023-03-31T02:22:01;12.40;99.90
7762;DHT22;3925;48.636;9.516;2023-03-31T02:24:30;12.30;99.90
7762;DHT22;3925;48.636;9.516;2023-03-31T02:27:06;12.20;99.90
7762;DHT22;3925;48.636;9.516;2023-03-31T02:29:35;12.10;99.90
7762;DHT22;3925;48.636;9.516;2023-03-31T02:32:07;12.00;99.90
7762;DHT22;3925;48.636;9.516;2023-03-31T02:34:37;12.00;99.90
7762;DHT22;3925;48.636;9.516;2023-03-31T02:37:04;11.80;99.90
7762;DHT22;3925;48.636;9.516;2023-03-31T02:39:33;11.70;99.90
7762;DHT22;3925;48.636;9.516;2023-03-31T02:42:02;11.60;99.90
7762;DHT22;3925;48.636;9.516;2023-03-31T02:44:32;11.50;99.90
7762;DHT22;3925;48.636;9.516;2023-03-31T02:46:58;11.40;99.90
7762;DHT22;3925;48.636;9.516;2023-03-31T02:49:25;11.40;99.90
7762;DHT22;3925;48.636;9.516;2023-03-31T02:55:04;11.30;99.90
7762;DHT22;3925;48.636;9.516;2023-03-31T03:00:59;11.20;99.90
7762;DHT22;3925;48.636;9.516;2023-03-31T03:03:40;11.30;99.90
7762;DHT22;3925;48.636;9.516;2023-03-31T03:06:24;11.30;99.90
7762;DHT22;3925;48.636;9.516;2023-03-31T03:09:03;11.20;99.90
7762;DHT22;3925;48.636;9.516;2023-03-31T03:11:38;11.30;99.90
7762;DHT22;3925;48.636;9.516;2023-03-31T03:14:17;11.10;99.90
7762;DHT22;3925;48.636;9.516;2023-03-31T03:16:48;11.10;99.90
7762;DHT22;3925;48.636;9.516;2023-03-31T03:19:20;11.20;99.90
7762;DHT22;3925;48.636;9.516;2023-03-31T03:21:48;11.20;99.90
7762;DHT22;3925;48.636;9.516;2023-03-31T03:24:15;11.30;99.90
7762;DHT22;3925;48.636;9.516;2023-03-31T03:26:43;11.20;99.90
7762;DHT22;3925;48.636;9.516;2023-03-31T03:29:11;11.30;99.90
7762;DHT22;3925;48.636;9.516;2023-03-31T03:31:39;11.30;99.90
7762;DHT22;3925;48.636;9.516;2023-03-31T03:34:06;11.30;99.90
7762;DHT22;3925;48.636;9.516;2023-03-31T03:36:34;11.30;99.90
7762;DHT22;3925;48.636;9.516;2023-03-31T03:39:01;11.30;99.90
7762;DHT22;3925;48.636;9.516;2023-03-31T03:41:29;11.20;99.90
7762;DHT22;3925;48.636;9.516;2023-03-31T03:43:57;11.20;99.90
7762;DHT22;3925;48.636;9.516;2023-03-31T03:46:26;11.10;99.90
7762;DHT22;3925;48.636;9.516;2023-03-31T03:48:53;11.10;99.90
7762;DHT22;3925;48.636;9.516;2023-03-31T03:51:20;11.10;99.90
7762;DHT22;3925;48.636;9.516;2023-03-31T03:53:47;11.10;99.90
7762;DHT22;3925;48.636;9.516;2023-03-31T03:56:14;11.00;99.90
7762;DHT22;3925;48.636;9.516;2023-03-31T03:58:41;11.10;99.90
7762;DHT22;3925;48.636;9.516;2023-03-31T04:01:08;11.00;99.90
7762;DHT22;3925;48.636;9.516;2023-03-31T04:03:36;11.00;99.90
7762;DHT22;3925;48.636;9.516;2023-03-31T04:06:03;10.90;99.90
7762;DHT22;3925;48.636;9.516;2023-03-31T04:08:30;10.80;99.90
7762;DHT22;3925;48.636;9.516;2023-03-31T04:10:57;10.70;99.90
7762;DHT22;3925;48.636;9.516;2023-03-31T04:13:24;10.60;99.90
7762;DHT22;3925;48.636;9.516;2023-03-31T04:15:50;10.60;99.90
7762;DHT22;3925;48.636;9.516;2023-03-31T04:18:17;10.70;99.90
7762;DHT22;3925;48.636;9.516;2023-03-31T04:20:48;10.60;99.90
7762;DHT22;3925;48.636;9.516;2023-03-31T04:23:20;10.70;99.90
7762;DHT22;3925;48.636;9.516;2023-03-31T04:25:49;10.70;99.90
7762;DHT22;3925;48.636;9.516;2023-03-31T04:28:16;10.80;99.90
7762;DHT22;3925;48.636;9.516;2023-03-31T04:30:44;10.80;99.90
7762;DHT22;3925;48.636;9.516;2023-03-31T04:33:11;10.80;99.90
7762;DHT22;3925;48.636;9.516;2023-03-31T04:35:40;10.80;99.90
7762;DHT22;3925;48.636;9.516;2023-03-31T04:38:16;10.90;99.90
7762;DHT22;3925;48.636;9.516;2023-03-31T04:40:45;10.90;99.90
7762;DHT22;3925;48.636;9.516;2023-03-31T04:43:12;10.90;99.90
7762;DHT22;3925;48.636;9.516;2023-03-31T04:45:39;10.90;99.90
7762;DHT22;3925;48.636;9.516;2023-03-31T04:48:06;11.00;99.90
7762;DHT22;3925;48.636;9.516;2023-03-31T04:50:33;11.00;99.90
7762;DHT22;3925;48.636;9.516;2023-03-31T04:53:00;10.90;99.90
7762;DHT22;3925;48.636;9.516;2023-03-31T04:55:29;11.00;99.90
7762;DHT22;3925;48.636;9.516;2023-03-31T04:57:56;11.00;99.90
7762;DHT22;3925;48.636;9.516;2023-03-31T05:00:23;11.10;99.90
7762;DHT22;3925;48.636;9.516;2023-03-31T05:02:51;11.10;99.90
7762;DHT22;3925;48.636;9.516;2023-03-31T05:05:17;11.10;99.90
7762;DHT22;3925;48.636;9.516;2023-03-31T05:07:44;11.20;99.90
7762;DHT22;3925;48.636;9.516;2023-03-31T05:10:12;11.20;99.90
7762;DHT22;3925;48.636;9.516;2023-03-31T05:12:40;11.20;99.90
7762;DHT22;3925;48.636;9.516;2023-03-31T05:15:07;11.30;99.90
7762;DHT22;3925;48.636;9.516;2023-03-31T05:17:35;11.30;99.90
7762;DHT22;3925;48.636;9.516;2023-03-31T05:20:03;11.30;99.90
7762;DHT22;3925;48.636;9.516;2023-03-31T05:22:33;11.30;99.90
7762;DHT22;3925;48.636;9.516;2023-03-31T05:25:01;11.30;99.90
7762;DHT22;3925;48.636;9.516;2023-03-31T05:27:28;11.30;99.90
7762;DHT22;3925;48.636;9.516;2023-03-31T05:29:56;11.40;99.90
7762;DHT22;3925;48.636;9.516;2023-03-31T05:32:24;11.40;99.90
7762;DHT22;3925;48.636;9.516;2023-03-31T05:34:51;11.40;99.90
7762;DHT22;3925;48.636;9.516;2023-03-31T05:37:22;11.40;99.90
7762;DHT22;3925;48.636;9.516;2023-03-31T05:39:49;11.30;99.90
7762;DHT22;3925;48.636;9.516;2023-03-31T05:42:16;11.20;99.90
7762;DHT22;3925;48.636;9.516;2023-03-31T05:44:43;11.20;99.90
7762;DHT22;3925;48.636;9.516;2023-03-31T05:47:12;11.20;99.90
7762;DHT22;3925;48.636;9.516;2023-03-31T05:49:39;11.10;99.90
7762;DHT22;3925;48.636;9.516;2023-03-31T05:52:06;11.10;99.90
7762;DHT22;3925;48.636;9.516;2023-03-31T05:54:33;11.10;99.90
7762;DHT22;3925;48.636;9.516;2023-03-31T05:57:00;11.00;99.90
7762;DHT22;3925;48.636;9.516;2023-03-31T05:59:27;10.90;99.90
7762;DHT22;3925;48.636;9.516;2023-03-31T06:01:54;11.00;99.90
7762;DHT22;3925;48.636;9.516;2023-03-31T06:04:22;10.90;99.90
7762;DHT22;3925;48.636;9.516;2023-03-31T06:06:49;10.90;99.90
7762;DHT22;3925;48.636;9.516;2023-03-31T06:09:16;11.00;99.90
7762;DHT22;3925;48.636;9.516;2023-03-31T06:11:43;10.90;99.90
7762;DHT22;3925;48.636;9.516;2023-03-31T06:14:10;10.90;99.90
7762;DHT22;3925;48.636;9.516;2023-03-31T06:16:37;10.80;99.90
7762;DHT22;3925;48.636;9.516;2023-03-31T06:19:04;10.70;99.90
7762;DHT22;3925;48.636;9.516;2023-03-31T06:21:33;10.80;99.90
7762;DHT22;3925;48.636;9.516;2023-03-31T06:24:00;10.80;99.90
7762;DHT22;3925;48.636;9.516;2023-03-31T06:26:27;10.80;99.90
7762;DHT22;3925;48.636;9.516;2023-03-31T06:28:54;10.80;99.90
7762;DHT22;3925;48.636;9.516;2023-03-31T06:31:22;10.90;99.90
7762;DHT22;3925;48.636;9.516;2023-03-31T06:33:49;10.90;99.90
7762;DHT22;3925;48.636;9.516;2023-03-31T06:36:18;11.00;99.90
7762;DHT22;3925;48.636;9.516;2023-03-31T06:38:47;11.00;99.90
7762;DHT22;3925;48.636;9.516;2023-03-31T06:41:16;11.00;99.90
7762;DHT22;3925;48.636;9.516;2023-03-31T06:43:43;11.10;99.90
7762;DHT22;3925;48.636;9.516;2023-03-31T06:46:11;11.00;99.90
7762;DHT22;3925;48.636;9.516;2023-03-31T06:48:38;11.10;99.90
7762;DHT22;3925;48.636;9.516;2023-03-31T06:51:06;11.10;99.90
7762;DHT22;3925;48.636;9.516;2023-03-31T06:53:34;11.10;99.90
7762;DHT22;3925;48.636;9.516;2023-03-31T06:56:03;11.00;99.90
7762;DHT22;3925;48.636;9.516;2023-03-31T06:58:30;11.00;99.90
7762;DHT22;3925;48.636;9.516;2023-03-31T07:00:57;11.00;99.90
7762;DHT22;3925;48.636;9.516;2023-03-31T07:03:24;11.00;99.90
7762;DHT22;3925;48.636;9.516;2023-03-31T07:05:52;11.00;99.90
7762;DHT22;3925;48.636;9.516;2023-03-31T07:08:20;11.00;99.90
7762;DHT22;3925;48.636;9.516;2023-03-31T07:10:47;11.10;99.90
7762;DHT22;3925;48.636;9.516;2023-03-31T07:13:16;11.00;99.90
7762;DHT22;3925;48.636;9.516;2023-03-31T07:15:46;10.90;99.90
7762;DHT22;3925;48.636;9.516;2023-03-31T07:18:13;10.90;99.90
7762;DHT22;3925;48.636;9.516;2023-03-31T07:20:41;10.70;99.90
7762;DHT22;3925;48.636;9.516;2023-03-31T07:23:08;10.60;99.90
7762;DHT22;3925;48.636;9.516;2023-03-31T07:25:35;10.60;99.90
7762;DHT22;3925;48.636;9.516;2023-03-31T07:28:03;10.60;99.90
7762;DHT22;3925;48.636;9.516;2023-03-31T07:30:32;10.50;99.90
7762;DHT22;3925;48.636;9.516;2023-03-31T07:32:59;10.60;99.90
7762;DHT22;3925;48.636;9.516;2023-03-31T07:35:27;10.50;99.90
7762;DHT22;3925;48.636;9.516;2023-03-31T07:37:53;10.50;99.90
7762;DHT22;3925;48.636;9.516;2023-03-31T07:40:23;10.60;99.90
7762;DHT22;3925;48.636;9.516;2023-03-31T07:42:51;10.60;99.90
7762;DHT22;3925;48.636;9.516;2023-03-31T07:45:19;10.80;99.90
7762;DHT22;3925;48.636;9.516;2023-03-31T07:47:47;10.80;99.90
7762;DHT22;3925;48.636;9.516;2023-03-31T07:50:15;10.90;99.90
7762;DHT22;3925;48.636;9.516;2023-03-31T07:52:42;11.00;99.90
7762;DHT22;3925;48.636;9.516;2023-03-31T07:55:11;11.10;99.90
7762;DHT22;3925;48.636;9.516;2023-03-31T07:57:37;11.10;99.90
7762;DHT22;3925;48.636;9.516;2023-03-31T08:00:06;11.30;99.90
7762;DHT22;3925;48.636;9.516;2023-03-31T08:02:35;11.50;99.90
7762;DHT22;3925;48.636;9.516;2023-03-31T08:05:04;11.50;99.90
7762;DHT22;3925;48.636;9.516;2023-03-31T08:07:32;11.70;99.90
7762;DHT22;3925;48.636;9.516;2023-03-31T08:10:02;11.90;99.90
7762;DHT22;3925;48.636;9.516;2023-03-31T08:12:29;12.20;99.90
7762;DHT22;3925;48.636;9.516;2023-03-31T08:14:56;12.70;99.90
7762;DHT22;3925;48.636;9.516;2023-03-31T08:17:23;13.40;99.90
7762;DHT22;3925;48.636;9.516;2023-03-31T08:19:50;13.90;99.90
7762;DHT22;3925;48.636;9.516;2023-03-31T08:22:18;14.20;99.90
7762;DHT22;3925;48.636;9.516;2023-03-31T08:24:46;14.20;99.90
7762;DHT22;3925;48.636;9.516;2023-03-31T08:27:12;14.90;99.90
7762;DHT22;3925;48.636;9.516;2023-03-31T08:29:40;16.60;99.90
7762;DHT22;3925;48.636;9.516;2023-03-31T08:32:06;18.20;99.90
7762;DHT22;3925;48.636;9.516;2023-03-31T08:34:33;19.80;99.90
7762;DHT22;3925;48.636;9.516;2023-03-31T08:37:00;21.60;96.10
7762;DHT22;3925;48.636;9.516;2023-03-31T08:39:29;21.70;93.50
7762;DHT22;3925;48.636;9.516;2023-03-31T08:41:58;21.50;93.30
7762;DHT22;3925;48.636;9.516;2023-03-31T08:44:30;22.70;92.10
7762;DHT22;3925;48.636;9.516;2023-03-31T08:47:00;21.10;92.20
7762;DHT22;3925;48.636;9.516;2023-03-31T08:49:30;21.80;92.50
7762;DHT22;3925;48.636;9.516;2023-03-31T08:52:01;23.50;89.30
7762;DHT22;3925;48.636;9.516;2023-03-31T08:54:33;23.40;87.30
7762;DHT22;3925;48.636;9.516;2023-03-31T08:57:03;24.50;83.50
7762;DHT22;3925;48.636;9.516;2023-03-31T08:59:32;23.00;83.70
7762;DHT22;3925;48.636;9.516;2023-03-31T09:02:04;22.50;83.40
7762;DHT22;3925;48.636;9.516;2023-03-31T09:05:06;22.10;85.50
7762;DHT22;3925;48.636;9.516;2023-03-31T09:07:44;23.60;83.30
7762;DHT22;3925;48.636;9.516;2023-03-31T09:10:33;23.00;82.10
7762;DHT22;3925;48.636;9.516;2023-03-31T09:13:09;22.10;83.40
7762;DHT22;3925;48.636;9.516;2023-03-31T09:15:44;22.50;85.40
7762;DHT22;3925;48.636;9.516;2023-03-31T09:18:17;23.90;78.20
7762;DHT22;3925;48.636;9.516;2023-03-31T09:20:48;24.10;78.50
7762;DHT22;3925;48.636;9.516;2023-03-31T09:23:23;23.10;78.60
7762;DHT22;3925;48.636;9.516;2023-03-31T09:25:53;23.80;79.90
7762;DHT22;3925;48.636;9.516;2023-03-31T09:28:25;23.70;77.00
7762;DHT22;3925;48.636;9.516;2023-03-31T09:30:54;23.90;76.80
7762;DHT22;3925;48.636;9.516;2023-03-31T09:33:25;24.60;75.20
7762;DHT22;3925;48.636;9.516;2023-03-31T09:35:56;23.80;74.80
7762;DHT22;3925;48.636;9.516;2023-03-31T09:38:23;23.70;73.00
7762;DHT22;3925;48.636;9.516;2023-03-31T09:40:55;23.60;73.40
7762;DHT22;3925;48.636;9.516;2023-03-31T09:43:25;24.30;73.60
7762;DHT22;3925;48.636;9.516;2023-03-31T09:45:52;24.20;70.10
7762;DHT22;3925;48.636;9.516;2023-03-31T09:48:23;24.10;72.00
7762;DHT22;3925;48.636;9.516;2023-03-31T09:50:54;23.90;72.10
7762;DHT22;3925;48.636;9.516;2023-03-31T09:53:33;24.90;70.60
7762;DHT22;3925;48.636;9.516;2023-03-31T09:56:04;25.30;65.70
7762;DHT22;3925;48.636;9.516;2023-03-31T09:58:39;24.20;67.30
7762;DHT22;3925;48.636;9.516;2023-03-31T10:01:06;23.80;66.80
7762;DHT22;3925;48.636;9.516;2023-03-31T10:03:44;21.30;69.80
7762;DHT22;3925;48.636;9.516;2023-03-31T10:06:14;20.60;74.30
7762;DHT22;3925;48.636;9.516;2023-03-31T10:08:42;19.60;76.70
7762;DHT22;3925;48.636;9.516;2023-03-31T10:11:14;18.70;79.90
7762;DHT22;3925;48.636;9.516;2023-03-31T10:13:45;18.50;79.40
7762;DHT22;3925;48.636;9.516;2023-03-31T10:16:14;18.80;85.30
7762;DHT22;3925;48.636;9.516;2023-03-31T10:18:46;18.40;84.50
7762;DHT22;3925;48.636;9.516;2023-03-31T10:21:20;18.30;84.70
7762;DHT22;3925;48.636;9.516;2023-03-31T10:23:49;17.80;86.40
7762;DHT22;3925;48.636;9.516;2023-03-31T10:26:19;17.20;85.80
7762;DHT22;3925;48.636;9.516;2023-03-31T10:28:49;17.50;89.40
7762;DHT22;3925;48.636;9.516;2023-03-31T10:31:17;17.40;89.80
7762;DHT22;3925;48.636;9.516;2023-03-31T10:33:47;17.70;87.40
7762;DHT22;3925;48.636;9.516;2023-03-31T10:36:20;18.10;86.30
7762;DHT22;3925;48.636;9.516;2023-03-31T10:38:49;19.00;83.10
7762;DHT22;3925;48.636;9.516;2023-03-31T10:41:20;19.30;84.70
7762;DHT22;3925;48.636;9.516;2023-03-31T10:43:50;20.60;81.30
7762;DHT22;3925;48.636;9.516;2023-03-31T10:46:17;21.40;75.90
7762;DHT22;3925;48.636;9.516;2023-03-31T10:48:45;22.30;71.50
7762;DHT22;3925;48.636;9.516;2023-03-31T10:51:15;23.40;71.40
7762;DHT22;3925;48.636;9.516;2023-03-31T10:53:43;23.30;68.10
7762;DHT22;3925;48.636;9.516;2023-03-31T10:56:35;23.50;61.90
7762;DHT22;3925;48.636;9.516;2023-03-31T10:59:14;22.40;60.60
7762;DHT22;3925;48.636;9.516;2023-03-31T11:02:02;21.80;64.70
7762;DHT22;3925;48.636;9.516;2023-03-31T11:04:55;21.20;65.90
7762;DHT22;3925;48.636;9.516;2023-03-31T11:07:35;21.10;66.70
7762;DHT22;3925;48.636;9.516;2023-03-31T11:10:22;20.60;69.40
7762;DHT22;3925;48.636;9.516;2023-03-31T11:13:00;20.00;70.30
7762;DHT22;3925;48.636;9.516;2023-03-31T11:15:36;19.50;71.10
7762;DHT22;3925;48.636;9.516;2023-03-31T11:18:16;19.20;72.60
7762;DHT22;3925;48.636;9.516;2023-03-31T11:20:54;19.10;74.00
7762;DHT22;3925;48.636;9.516;2023-03-31T11:23:30;19.30;74.30
7762;DHT22;3925;48.636;9.516;2023-03-31T11:26:02;19.00;74.10
7762;DHT22;3925;48.636;9.516;2023-03-31T11:28:41;18.30;73.90
7762;DHT22;3925;48.636;9.516;2023-03-31T11:31:26;17.70;74.70
7762;DHT22;3925;48.636;9.516;2023-03-31T11:34:10;17.10;78.10
7762;DHT22;3925;48.636;9.516;2023-03-31T11:37:08;16.80;79.90
7762;DHT22;3925;48.636;9.516;2023-03-31T11:39:46;16.20;85.80
7762;DHT22;3925;48.636;9.516;2023-03-31T11:42:20;15.20;88.20
7762;DHT22;3925;48.636;9.516;2023-03-31T11:44:52;12.80;97.50
7762;DHT22;3925;48.636;9.516;2023-03-31T11:47:22;11.30;99.90
7762;DHT22;3925;48.636;9.516;2023-03-31T11:49:52;10.30;99.90
7762;DHT22;3925;48.636;9.516;2023-03-31T11:52:26;10.10;99.90
7762;DHT22;3925;48.636;9.516;2023-03-31T11:54:57;10.00;99.90
7762;DHT22;3925;48.636;9.516;2023-03-31T11:57:29;9.90;99.90
7762;DHT22;3925;48.636;9.516;2023-03-31T12:00:02;10.00;99.90
7762;DHT22;3925;48.636;9.516;2023-03-31T12:02:38;10.00;99.90
7762;DHT22;3925;48.636;9.516;2023-03-31T12:05:08;9.70;99.90
7762;DHT22;3925;48.636;9.516;2023-03-31T12:07:40;9.90;99.90
7762;DHT22;3925;48.636;9.516;2023-03-31T12:10:14;10.00;99.90
7762;DHT22;3925;48.636;9.516;2023-03-31T12:12:47;10.00;99.90
7762;DHT22;3925;48.636;9.516;2023-03-31T12:15:20;10.30;99.90
7762;DHT22;3925;48.636;9.516;2023-03-31T12:17:53;10.50;99.90
7762;DHT22;3925;48.636;9.516;2023-03-31T12:20:29;11.10;99.90
7762;DHT22;3925;48.636;9.516;2023-03-31T12:22:58;11.90;99.90
7762;DHT22;3925;48.636;9.516;2023-03-31T12:25:33;12.50;99.90
7762;DHT22;3925;48.636;9.516;2023-03-31T12:28:03;12.80;99.90
7762;DHT22;3925;48.636;9.516;2023-03-31T12:30:33;12.80;99.90
7762;DHT22;3925;48.636;9.516;2023-03-31T12:33:05;12.80;99.90
7762;DHT22;3925;48.636;9.516;2023-03-31T12:35:40;12.80;99.90
7762;DHT22;3925;48.636;9.516;2023-03-31T12:38:18;12.50;99.90
7762;DHT22;3925;48.636;9.516;2023-03-31T12:40:57;12.40;99.90
7762;DHT22;3925;48.636;9.516;2023-03-31T12:43:36;12.40;99.90
7762;DHT22;3925;48.636;9.516;2023-03-31T12:46:20;12.40;99.90
7762;DHT22;3925;48.636;9.516;2023-03-31T12:49:08;12.50;99.90
7762;DHT22;3925;48.636;9.516;2023-03-31T12:51:53;13.00;99.90
7762;DHT22;3925;48.636;9.516;2023-03-31T12:54:44;13.40;99.90
7762;DHT22;3925;48.636;9.516;2023-03-31T12:57:19;13.90;99.90
7762;DHT22;3925;48.636;9.516;2023-03-31T13:00:20;14.00;99.90
7762;DHT22;3925;48.636;9.516;2023-03-31T13:02:49;14.20;99.90
7762;DHT22;3925;48.636;9.516;2023-03-31T13:05:44;14.40;99.90
7762;DHT22;3925;48.636;9.516;2023-03-31T13:08:48;14.40;99.90
7762;DHT22;3925;48.636;9.516;2023-03-31T13:11:17;14.10;99.90
7762;DHT22;3925;48.636;9.516;2023-03-31T13:13:46;14.00;99.90
7762;DHT22;3925;48.636;9.516;2023-03-31T13:16:18;14.10;99.90
7762;DHT22;3925;48.636;9.516;2023-03-31T13:18:50;14.10;99.90
7762;DHT22;3925;48.636;9.516;2023-03-31T13:21:18;14.10;99.90
7762;DHT22;3925;48.636;9.516;2023-03-31T13:23:45;14.20;99.90
7762;DHT22;3925;48.636;9.516;2023-03-31T13:26:41;14.30;99.90
7762;DHT22;3925;48.636;9.516;2023-03-31T13:29:20;13.90;99.90
7762;DHT22;3925;48.636;9.516;2023-03-31T13:32:18;13.90;99.90
7762;DHT22;3925;48.636;9.516;2023-03-31T13:34:54;14.00;99.90
7762;DHT22;3925;48.636;9.516;2023-03-31T13:40:32;14.10;99.90
7762;DHT22;3925;48.636;9.516;2023-03-31T13:43:39;14.20;99.90
7762;DHT22;3925;48.636;9.516;2023-03-31T13:52:35;14.80;99.90
7762;DHT22;3925;48.636;9.516;2023-03-31T13:55:33;14.90;99.90
7762;DHT22;3925;48.636;9.516;2023-03-31T13:58:21;15.10;99.90
7762;DHT22;3925;48.636;9.516;2023-03-31T14:01:03;14.50;99.90
7762;DHT22;3925;48.636;9.516;2023-03-31T14:03:45;14.00;99.90
7762;DHT22;3925;48.636;9.516;2023-03-31T14:06:22;13.50;99.90
7762;DHT22;3925;48.636;9.516;2023-03-31T14:08:52;13.10;99.90
7762;DHT22;3925;48.636;9.516;2023-03-31T14:11:22;12.40;99.90
7762;DHT22;3925;48.636;9.516;2023-03-31T14:14:04;11.80;99.90
7762;DHT22;3925;48.636;9.516;2023-03-31T14:16:36;11.50;99.90
7762;DHT22;3925;48.636;9.516;2023-03-31T14:19:17;11.30;99.90
7762;DHT22;3925;48.636;9.516;2023-03-31T14:21:52;11.10;99.90
7762;DHT22;3925;48.636;9.516;2023-03-31T14:24:28;11.10;99.90
7762;DHT22;3925;48.636;9.516;2023-03-31T14:27:04;11.20;99.90
7762;DHT22;3925;48.636;9.516;2023-03-31T14:29:39;11.50;99.90
7762;DHT22;3925;48.636;9.516;2023-03-31T14:32:18;11.80;99.90
7762;DHT22;3925;48.636;9.516;2023-03-31T14:34:55;11.90;99.90
7762;DHT22;3925;48.636;9.516;2023-03-31T14:37:27;12.10;99.90
7762;DHT22;3925;48.636;9.516;2023-03-31T14:39:54;12.30;99.90
7762;DHT22;3925;48.636;9.516;2023-03-31T14:42:24;12.10;99.90
7762;DHT22;3925;48.636;9.516;2023-03-31T14:44:55;12.00;99.90
7762;DHT22;3925;48.636;9.516;2023-03-31T14:47:25;12.00;99.90
7762;DHT22;3925;48.636;9.516;2023-03-31T14:50:00;11.90;99.90
7762;DHT22;3925;48.636;9.516;2023-03-31T14:52:30;11.80;99.90
7762;DHT22;3925;48.636;9.516;2023-03-31T14:54:58;12.00;99.90
7762;DHT22;3925;48.636;9.516;2023-03-31T14:57:28;12.10;99.90
7762;DHT22;3925;48.636;9.516;2023-03-31T14:59:57;12.50;99.90
7762;DHT22;3925;48.636;9.516;2023-03-31T15:02:31;12.70;99.90
7762;DHT22;3925;48.636;9.516;2023-03-31T15:05:01;12.80;99.90
7762;DHT22;3925;48.636;9.516;2023-03-31T15:07:28;12.70;99.90
7762;DHT22;3925;48.636;9.516;2023-03-31T15:09:56;12.80;99.90
7762;DHT22;3925;48.636;9.516;2023-03-31T15:12:23;12.70;99.90
7762;DHT22;3925;48.636;9.516;2023-03-31T15:14:52;12.80;99.90
7762;DHT22;3925;48.636;9.516;2023-03-31T15:17:22;13.10;99.90
7762;DHT22;3925;48.636;9.516;2023-03-31T15:19:56;13.00;99.90
7762;DHT22;3925;48.636;9.516;2023-03-31T15:22:24;12.70;99.90
7762;DHT22;3925;48.636;9.516;2023-03-31T15:24:52;12.60;99.90
7762;DHT22;3925;48.636;9.516;2023-03-31T15:27:27;12.60;99.90
7762;DHT22;3925;48.636;9.516;2023-03-31T15:29:58;12.70;99.90
7762;DHT22;3925;48.636;9.516;2023-03-31T15:32:27;12.80;99.90
7762;DHT22;3925;48.636;9.516;2023-03-31T15:34:57;12.70;99.90
7762;DHT22;3925;48.636;9.516;2023-03-31T15:37:26;12.80;99.90
7762;DHT22;3925;48.636;9.516;2023-03-31T15:39:55;12.90;99.90
7762;DHT22;3925;48.636;9.516;2023-03-31T15:42:23;12.70;99.90
7762;DHT22;3925;48.636;9.516;2023-03-31T15:44:54;12.60;99.90
7762;DHT22;3925;48.636;9.516;2023-03-31T15:47:23;12.40;99.90
7762;DHT22;3925;48.636;9.516;2023-03-31T15:49:56;12.30;99.90
7762;DHT22;3925;48.636;9.516;2023-03-31T15:52:29;12.20;99.90
7762;DHT22;3925;48.636;9.516;2023-03-31T15:54:57;12.10;99.90
7762;DHT22;3925;48.636;9.516;2023-03-31T15:57:31;12.00;99.90
7762;DHT22;3925;48.636;9.516;2023-03-31T15:59:58;12.00;99.90
7762;DHT22;3925;48.636;9.516;2023-03-31T16:02:29;11.90;99.90
7762;DHT22;3925;48.636;9.516;2023-03-31T16:05:03;11.90;99.90
7762;DHT22;3925;48.636;9.516;2023-03-31T16:07:33;11.80;99.90
7762;DHT22;3925;48.636;9.516;2023-03-31T16:10:03;11.80;99.90
7762;DHT22;3925;48.636;9.516;2023-03-31T16:12:34;11.70;99.90
7762;DHT22;3925;48.636;9.516;2023-03-31T16:15:05;11.70;99.90
7762;DHT22;3925;48.636;9.516;2023-03-31T16:17:38;11.70;99.90
7762;DHT22;3925;48.636;9.516;2023-03-31T16:20:16;11.70;99.90
7762;DHT22;3925;48.636;9.516;2023-03-31T16:22:47;11.70;99.90
7762;DHT22;3925;48.636;9.516;2023-03-31T16:25:17;11.60;99.90
7762;DHT22;3925;48.636;9.516;2023-03-31T16:27:48;11.50;99.90
7762;DHT22;3925;48.636;9.516;2023-03-31T16:30:17;11.60;99.90
7762;DHT22;3925;48.636;9.516;2023-03-31T16:33:03;11.50;99.90
7762;DHT22;3925;48.636;9.516;2023-03-31T16:35:34;11.50;99.90
7762;DHT22;3925;48.636;9.516;2023-03-31T16:38:02;11.60;99.90
7762;DHT22;3925;48.636;9.516;2023-03-31T16:40:34;11.60;99.90
7762;DHT22;3925;48.636;9.516;2023-03-31T16:43:10;11.60;99.90
7762;DHT22;3925;48.636;9.516;2023-03-31T16:45:38;11.50;99.90
7762;DHT22;3925;48.636;9.516;2023-03-31T16:48:05;11.40;99.90
7762;DHT22;3925;48.636;9.516;2023-03-31T16:50:34;11.50;99.90